Time;durP1;ratioP1;P1;durP2;ratioP2;P2;SDS_P1;SDS_P2;PMS_P1;PMS_P2;Temp;Humidity;BMP_temperature;BMP_pressure;BME280_temperature;BME280_humidity;BME280_pressure;Samples;Min_cycle;Max_cycle;Signal;HPM_P1;HPM_P2
2022/10/08 00:00:01;;;;;;;9.07;8.17;;;21.80;57.90;;;;;;5048429;28;20455;-50
2022/10/08 00:02:28;;;;;;;11.13;8.90;;;21.80;57.80;;;;;;5049013;28;21161;-50
2022/10/08 00:04:54;;;;;;;13.00;8.50;;;21.80;57.80;;;;;;5045681;28;20200;-53
2022/10/08 00:07:19;;;;;;;9.47;8.57;;;21.90;57.80;;;;;;5043813;28;20450;-50
2022/10/08 00:09:45;;;;;;;9.70;8.73;;;21.90;57.70;;;;;;5045621;28;20555;-51
2022/10/08 00:12:10;;;;;;;9.23;8.07;;;21.80;57.70;;;;;;5045499;28;20201;-52
2022/10/08 00:14:37;;;;;;;13.13;8.87;;;21.80;57.60;;;;;;5047537;28;20197;-51
2022/10/08 00:17:03;;;;;;;9.50;8.00;;;21.90;57.60;;;;;;5047946;28;20196;-53
2022/10/08 00:19:28;;;;;;;9.83;8.30;;;21.90;57.40;;;;;;5043286;28;20451;-51
2022/10/08 00:21:55;;;;;;;16.07;8.80;;;21.80;57.30;;;;;;5038358;28;20204;-51
2022/10/08 00:24:22;;;;;;;10.43;9.10;;;21.80;57.30;;;;;;5044207;28;20223;-50
2022/10/08 00:26:48;;;;;;;9.70;8.70;;;21.70;57.20;;;;;;5048613;28;20442;-52
2022/10/08 00:29:17;;;;;;;8.90;8.10;;;21.70;57.20;;;;;;5039077;28;20476;-53
2022/10/08 00:31:44;;;;;;;9.77;8.77;;;21.70;57.50;;;;;;5042151;28;20494;-52
2022/10/08 00:34:13;;;;;;;10.77;9.23;;;21.60;57.60;;;;;;5044301;28;20869;-51
2022/10/08 00:36:40;;;;;;;9.50;8.50;;;21.60;57.60;;;;;;5044745;28;20451;-52
2022/10/08 00:39:15;;;;;;;9.07;8.23;;;21.70;57.80;;;;;;5045260;28;20442;-52
2022/10/08 00:41:42;;;;;;;11.97;8.33;;;21.70;57.70;;;;;;5048154;28;20454;-48
2022/10/08 00:44:45;;;;;;;11.30;9.10;;;21.70;57.50;;;;;;5044800;28;20498;-52
2022/10/08 00:47:15;;;;;;;8.93;8.13;;;21.70;57.50;;;;;;5046250;28;20457;-50
2022/10/08 00:49:40;;;;;;;10.13;8.50;;;21.60;57.60;;;;;;5045984;28;20848;-53
2022/10/08 00:52:06;;;;;;;8.10;7.30;;;21.60;58.30;;;;;;5048518;28;20451;-49
2022/10/08 00:54:32;;;;;;;10.40;9.10;;;21.60;58.00;;;;;;5040132;28;20205;-50
2022/10/08 00:56:58;;;;;;;12.83;8.73;;;21.60;58.10;;;;;;5041376;28;20489;-49
2022/10/08 00:59:25;;;;;;;14.20;7.53;;;21.60;58.10;;;;;;5042857;28;20202;-51
2022/10/08 01:01:52;;;;;;;11.73;9.97;;;21.60;58.10;;;;;;5041625;28;20740;-51
2022/10/08 01:04:17;;;;;;;8.97;8.07;;;21.60;58.80;;;;;;5039359;28;20450;-51
2022/10/08 01:07:09;;;;;;;12.30;8.57;;;21.50;58.20;;;;;;5040905;28;20439;-48
2022/10/08 01:09:41;;;;;;;8.87;7.80;;;21.50;58.30;;;;;;5045940;28;20551;-49
2022/10/08 01:12:16;;;;;;;9.70;8.30;;;21.50;58.20;;;;;;5045800;28;20459;-48
2022/10/08 01:14:41;;;;;;;9.00;8.00;;;21.50;58.40;;;;;;5048271;28;20446;-48
2022/10/08 01:17:23;;;;;;;10.47;8.40;;;21.40;58.40;;;;;;5046252;28;20449;-48
2022/10/08 01:20:19;;;;;;;10.80;8.47;;;21.40;58.50;;;;;;5044956;28;21097;-47
2022/10/08 01:22:48;;;;;;;15.00;8.90;;;21.30;58.50;;;;;;5043945;28;20463;-50
2022/10/08 01:25:36;;;;;;;9.10;8.20;;;21.30;58.60;;;;;;5156218;27;20521;-47
2022/10/08 01:28:13;;;;;;;8.57;7.77;;;21.20;58.50;;;;;;5141934;27;20447;-49
2022/10/08 01:30:46;;;;;;;9.70;8.80;;;21.20;58.50;;;;;;5141658;27;20941;-49
2022/10/08 01:33:24;;;;;;;10.60;9.47;;;21.10;58.40;;;;;;5142580;27;20799;-47
2022/10/08 01:35:56;;;;;;;9.50;7.77;;;21.00;58.50;;;;;;5133330;27;20461;-46
2022/10/08 01:38:25;;;;;;;10.03;9.00;;;20.90;58.60;;;;;;5133941;27;20435;-47
2022/10/08 01:40:57;;;;;;;9.47;8.47;;;20.90;58.80;;;;;;5133018;27;23042;-47
2022/10/08 01:43:26;;;;;;;10.33;9.13;;;20.80;59.10;;;;;;5133277;27;20547;-50
2022/10/08 01:45:56;;;;;;;12.10;10.00;;;20.70;59.40;;;;;;5141559;27;20479;-46
2022/10/08 01:48:30;;;;;;;11.80;10.20;;;20.60;59.70;;;;;;5127879;27;20518;-46
2022/10/08 01:51:15;;;;;;;10.00;9.07;;;20.60;60.00;;;;;;5136118;27;20823;-46
2022/10/08 01:53:44;;;;;;;10.83;9.30;;;20.50;60.30;;;;;;5137336;27;20455;-46
2022/10/08 01:56:15;;;;;;;12.30;9.10;;;20.50;60.60;;;;;;5141633;27;20446;-51
2022/10/08 01:58:49;;;;;;;9.97;8.70;;;20.50;61.00;;;;;;5132018;27;20478;-47
2022/10/08 02:01:26;;;;;;;9.80;8.67;;;20.40;61.60;;;;;;5140668;27;20488;-47
2022/10/08 02:06:42;;;;;;;10.30;9.30;;;20.20;62.70;;;;;;5134870;27;21201;-46
2022/10/08 02:09:09;;;;;;;8.60;7.87;;;20.40;62.20;;;;;;5141793;27;20434;-46
2022/10/08 02:11:35;;;;;;;9.63;8.40;;;20.40;61.80;;;;;;5136657;27;20453;-46
2022/10/08 02:14:01;;;;;;;10.60;9.60;;;20.60;61.70;;;;;;5136845;27;20842;-46
2022/10/08 02:16:28;;;;;;;8.87;8.07;;;20.60;61.40;;;;;;5135545;27;20630;-47
2022/10/08 02:19:04;;;;;;;9.00;7.37;;;20.60;61.20;;;;;;5136070;27;20527;-48
2022/10/08 02:21:31;;;;;;;13.57;8.40;;;20.60;61.20;;;;;;5135548;27;20450;-47
2022/10/08 02:24:24;;;;;;;9.47;8.60;;;20.70;61.10;;;;;;5141148;27;20482;-46
2022/10/08 02:26:54;;;;;;;9.50;8.50;;;20.70;60.80;;;;;;5112400;27;20438;-50
2022/10/08 02:29:53;;;;;;;12.70;9.97;;;20.80;60.60;;;;;;5144438;27;20462;-47
2022/10/08 02:32:28;;;;;;;9.57;8.40;;;20.70;60.30;;;;;;5090767;27;20443;-48
2022/10/08 02:35:12;;;;;;;12.23;9.67;;;20.70;60.30;;;;;;5126463;27;20443;-46
2022/10/08 02:37:47;;;;;;;10.30;9.30;;;20.70;60.50;;;;;;5124031;27;20962;-47
2022/10/08 02:40:16;;;;;;;9.70;8.70;;;20.60;60.70;;;;;;5105981;27;20527;-46
2022/10/08 02:42:47;;;;;;;11.60;10.40;;;20.50;61.00;;;;;;5124159;27;20439;-48
2022/10/08 02:45:32;;;;;;;9.90;9.00;;;20.50;61.30;;;;;;5117829;27;21258;-46
2022/10/08 02:48:04;;;;;;;10.27;8.03;;;20.50;61.40;;;;;;5127791;27;20814;-45
2022/10/08 02:50:31;;;;;;;9.73;8.73;;;20.40;61.40;;;;;;5121487;27;20448;-46
2022/10/08 02:52:58;;;;;;;11.50;8.80;;;20.50;61.30;;;;;;5123797;27;20439;-48
2022/10/08 02:55:46;;;;;;;12.83;8.97;;;20.50;61.50;;;;;;5115672;27;20458;-47
2022/10/08 02:58:12;;;;;;;10.00;9.00;;;20.50;61.60;;;;;;5118214;27;20450;-46
2022/10/08 03:00:52;;;;;;;10.70;8.73;;;20.40;61.60;;;;;;5123376;27;20439;-50
2022/10/08 03:03:27;;;;;;;10.00;9.13;;;20.40;61.50;;;;;;5125321;27;20461;-46
2022/10/08 03:05:53;;;;;;;11.53;9.43;;;20.50;61.60;;;;;;5126479;27;20498;-50
2022/10/08 03:08:19;;;;;;;9.47;8.57;;;20.50;61.50;;;;;;5129179;27;20435;-50
2022/10/08 03:10:46;;;;;;;10.43;9.43;;;20.40;61.50;;;;;;5127602;27;20467;-47
2022/10/08 03:13:12;;;;;;;8.77;8.03;;;20.40;61.60;;;;;;5128897;27;20500;-47
2022/10/08 03:15:40;;;;;;;11.43;9.70;;;20.40;61.80;;;;;;5128276;27;20484;-47
2022/10/08 03:18:09;;;;;;;12.03;8.60;;;20.40;62.00;;;;;;5130628;27;21006;-49
2022/10/08 03:20:48;;;;;;;10.37;9.20;;;20.40;62.00;;;;;;5125986;27;20438;-48
2022/10/08 03:23:15;;;;;;;12.70;8.57;;;20.40;61.80;;;;;;5114782;27;20613;-46
2022/10/08 03:25:41;;;;;;;9.97;9.00;;;20.50;62.00;;;;;;5126252;27;20519;-48
2022/10/08 03:28:07;;;;;;;9.93;8.90;;;20.50;62.30;;;;;;5126198;27;20455;-49
2022/10/08 03:30:32;;;;;;;9.10;8.30;;;20.50;62.00;;;;;;5119137;27;20560;-46
2022/10/08 03:32:58;;;;;;;9.40;8.30;;;20.60;61.80;;;;;;5119977;27;20186;-47
2022/10/08 03:35:23;;;;;;;9.00;8.20;;;20.60;61.60;;;;;;5125780;27;20201;-46
2022/10/08 03:37:51;;;;;;;10.40;9.40;;;20.60;61.40;;;;;;5121440;27;20202;-46
2022/10/08 03:40:17;;;;;;;12.47;8.10;;;20.70;61.50;;;;;;5125465;27;20200;-46
2022/10/08 03:42:42;;;;;;;8.80;8.10;;;20.70;61.40;;;;;;5121155;27;20432;-46
2022/10/08 03:45:08;;;;;;;9.10;8.30;;;20.70;61.20;;;;;;5125709;27;20225;-50
2022/10/08 03:47:34;;;;;;;8.53;7.63;;;20.50;61.30;;;;;;5117898;27;20251;-46
2022/10/08 03:49:59;;;;;;;10.03;8.27;;;20.60;61.70;;;;;;5123669;27;20338;-46
2022/10/08 03:52:25;;;;;;;11.80;8.33;;;20.70;61.60;;;;;;5116671;27;20190;-47
2022/10/08 03:54:50;;;;;;;11.20;8.97;;;20.70;61.50;;;;;;5120153;27;20185;-49
2022/10/08 03:57:16;;;;;;;11.80;10.50;;;20.70;61.20;;;;;;5120544;27;20194;-50
2022/10/08 03:59:41;;;;;;;10.00;8.83;;;20.70;60.90;;;;;;5113908;27;20194;-47
2022/10/08 04:02:07;;;;;;;10.50;9.40;;;20.70;60.90;;;;;;5116754;27;20182;-46
2022/10/08 04:04:32;;;;;;;10.33;9.23;;;20.60;61.10;;;;;;5115598;27;20715;-46
2022/10/08 04:06:58;;;;;;;12.47;8.90;;;20.60;61.40;;;;;;5127106;27;20189;-47
2022/10/08 04:09:24;;;;;;;9.67;8.73;;;20.60;61.90;;;;;;5122072;27;20235;-49
2022/10/08 04:11:49;;;;;;;9.40;8.53;;;20.60;61.90;;;;;;5127782;27;20197;-47
2022/10/08 04:14:15;;;;;;;11.40;10.20;;;20.50;61.80;;;;;;5120755;27;20186;-47
2022/10/08 04:16:40;;;;;;;9.67;8.67;;;20.50;62.10;;;;;;5122588;27;20197;-47
2022/10/08 04:19:06;;;;;;;10.30;9.40;;;20.40;61.90;;;;;;5123123;27;20193;-48
2022/10/08 04:21:31;;;;;;;11.70;9.70;;;20.40;62.40;;;;;;5127522;27;20277;-47
2022/10/08 04:23:57;;;;;;;10.23;9.10;;;20.30;62.60;;;;;;5122568;27;20229;-47
2022/10/08 04:26:22;;;;;;;14.53;9.37;;;20.30;62.90;;;;;;5111643;27;20243;-47
2022/10/08 04:28:48;;;;;;;10.03;9.03;;;20.30;63.20;;;;;;5117766;27;20303;-47
2022/10/08 04:31:20;;;;;;;12.07;9.53;;;20.30;63.20;;;;;;5123017;27;20222;-47
2022/10/08 04:33:46;;;;;;;10.80;9.70;;;20.30;63.20;;;;;;5126453;27;20190;-47
2022/10/08 04:36:20;;;;;;;11.93;9.30;;;20.30;63.20;;;;;;5119161;27;20454;-49
2022/10/08 04:38:46;;;;;;;9.27;8.27;;;20.30;63.20;;;;;;5120313;27;20440;-47
2022/10/08 04:41:14;;;;;;;14.70;9.30;;;20.30;63.30;;;;;;5122201;27;20559;-47
2022/10/08 04:43:41;;;;;;;9.53;8.63;;;20.30;63.40;;;;;;5123862;27;20486;-49
2022/10/08 04:46:08;;;;;;;9.20;8.30;;;20.30;63.40;;;;;;5112877;27;20973;-48
2022/10/08 04:48:34;;;;;;;10.13;9.13;;;20.30;63.20;;;;;;5124946;27;20857;-48
2022/10/08 04:51:02;;;;;;;11.20;9.23;;;20.20;63.20;;;;;;5113962;27;20448;-51
2022/10/08 04:53:28;;;;;;;9.60;8.60;;;20.20;63.00;;;;;;5125771;27;20661;-47
2022/10/08 04:55:55;;;;;;;10.23;9.23;;;20.10;63.30;;;;;;5117162;27;20448;-49
2022/10/08 04:58:22;;;;;;;10.73;9.63;;;20.10;63.20;;;;;;5114236;27;20805;-51
2022/10/08 05:00:47;;;;;;;10.23;9.27;;;20.20;63.20;;;;;;5121340;27;21745;-48
2022/10/08 05:03:13;;;;;;;9.93;9.03;;;20.10;63.00;;;;;;5122136;27;20517;-47
2022/10/08 05:05:44;;;;;;;10.10;9.10;;;20.20;63.20;;;;;;5119367;27;20205;-47
2022/10/08 05:08:10;;;;;;;9.77;8.77;;;20.10;63.00;;;;;;5119587;27;20730;-46
2022/10/08 05:10:36;;;;;;;12.13;9.80;;;20.10;63.20;;;;;;5118965;27;20962;-50
2022/10/08 05:13:02;;;;;;;10.40;8.70;;;20.10;63.20;;;;;;5117662;27;20435;-47
2022/10/08 05:15:28;;;;;;;9.40;8.50;;;20.10;63.30;;;;;;5121446;27;20194;-47
2022/10/08 05:17:54;;;;;;;9.97;9.00;;;20.20;63.50;;;;;;5119597;27;20488;-46
2022/10/08 05:20:19;;;;;;;11.67;10.57;;;20.20;63.30;;;;;;5122718;27;20217;-48
2022/10/08 05:22:46;;;;;;;10.17;9.27;;;20.30;63.10;;;;;;5122517;28;20204;-47
2022/10/08 05:25:12;;;;;;;10.40;9.40;;;20.30;62.70;;;;;;5120113;28;20343;-47
2022/10/08 05:27:37;;;;;;;8.33;6.93;;;20.30;62.70;;;;;;5116587;28;20518;-48
2022/10/08 05:30:04;;;;;;;8.70;7.40;;;20.30;63.90;;;;;;5120014;28;20210;-49
2022/10/08 05:32:29;;;;;;;7.77;7.07;;;20.50;63.10;;;;;;5113003;28;20190;-48
2022/10/08 05:34:55;;;;;;;8.83;7.50;;;20.70;62.10;;;;;;5118929;28;20432;-46
2022/10/08 05:37:21;;;;;;;8.40;7.60;;;20.80;61.10;;;;;;5118982;28;20642;-50
2022/10/08 05:39:47;;;;;;;8.37;7.63;;;20.90;60.50;;;;;;5122733;28;20432;-47
2022/10/08 05:42:12;;;;;;;8.03;7.33;;;21.00;59.90;;;;;;5124686;28;20338;-46
2022/10/08 05:44:39;;;;;;;9.67;7.23;;;21.10;59.60;;;;;;5120980;28;20373;-46
2022/10/08 05:47:05;;;;;;;8.53;7.50;;;21.20;59.30;;;;;;5128923;28;20503;-47
2022/10/08 05:49:30;;;;;;;7.60;6.87;;;21.20;59.10;;;;;;5117072;28;20443;-46
2022/10/08 05:51:56;;;;;;;10.63;7.83;;;21.30;58.90;;;;;;5118925;28;20279;-46
2022/10/08 05:54:22;;;;;;;9.00;8.10;;;21.30;58.70;;;;;;5117275;28;20628;-46
2022/10/08 05:56:47;;;;;;;10.03;8.50;;;21.30;58.60;;;;;;5130158;28;20212;-48
2022/10/08 05:59:19;;;;;;;9.67;8.30;;;21.40;58.60;;;;;;5119798;28;20574;-47
2022/10/08 06:01:45;;;;;;;8.80;8.00;;;21.40;58.40;;;;;;5116375;28;21544;-47
2022/10/08 06:04:11;;;;;;;9.47;8.50;;;21.40;58.40;;;;;;5130925;28;20478;-47
2022/10/08 06:06:39;;;;;;;9.60;8.70;;;21.40;58.40;;;;;;5127372;28;20447;-48
2022/10/08 06:09:06;;;;;;;12.00;8.63;;;21.40;59.00;;;;;;5119455;28;20193;-48
2022/10/08 06:11:34;;;;;;;9.03;8.10;;;21.40;59.00;;;;;;5120634;27;20443;-47
2022/10/08 06:14:01;;;;;;;9.30;8.30;;;21.50;58.40;;;;;;5118564;27;20443;-46
2022/10/08 06:16:28;;;;;;;11.57;8.00;;;21.50;58.30;;;;;;5114285;28;20895;-46
2022/10/08 06:18:54;;;;;;;8.70;7.90;;;21.50;58.20;;;;;;5123187;27;20446;-47
2022/10/08 06:21:22;;;;;;;8.10;7.30;;;21.50;58.20;;;;;;5128938;27;20439;-50
2022/10/08 06:23:50;;;;;;;9.23;8.33;;;21.50;58.10;;;;;;5128128;27;20498;-47
2022/10/08 06:26:16;;;;;;;8.60;7.70;;;21.50;57.90;;;;;;5125035;27;20435;-48
2022/10/08 06:28:43;;;;;;;15.20;8.97;;;21.50;58.00;;;;;;5116613;27;20539;-47
2022/10/08 06:31:09;;;;;;;13.80;7.60;;;21.50;57.90;;;;;;5128326;27;20439;-50
2022/10/08 06:33:35;;;;;;;8.93;7.93;;;21.50;58.00;;;;;;5127200;27;20860;-48
2022/10/08 06:36:18;;;;;;;8.73;7.93;;;21.50;57.90;;;;;;5100366;27;20905;-48
2022/10/08 06:38:58;;;;;;;10.37;9.37;;;21.60;58.00;;;;;;5126743;27;20470;-48
2022/10/08 06:41:25;;;;;;;8.07;7.27;;;21.60;58.00;;;;;;5122362;27;20454;-48
2022/10/08 06:43:51;;;;;;;9.70;8.90;;;21.60;58.00;;;;;;5124810;27;20479;-47
2022/10/08 06:46:18;;;;;;;10.00;9.20;;;21.60;58.00;;;;;;5120498;27;20476;-49
2022/10/08 06:48:43;;;;;;;11.37;8.53;;;21.60;57.90;;;;;;5117676;27;20618;-49
2022/10/08 06:51:11;;;;;;;10.53;7.80;;;21.60;57.80;;;;;;5117353;27;20432;-47
2022/10/08 06:53:37;;;;;;;10.70;8.97;;;21.60;57.90;;;;;;5126054;27;20229;-46
2022/10/08 06:56:06;;;;;;;9.97;9.07;;;21.70;57.80;;;;;;5117147;27;20437;-48
2022/10/08 06:58:34;;;;;;;9.90;7.70;;;21.70;57.80;;;;;;5127973;27;20439;-46
2022/10/08 07:01:03;;;;;;;12.63;8.33;;;21.80;57.60;;;;;;5120594;27;21050;-46
2022/10/08 07:03:29;;;;;;;10.50;8.97;;;21.90;57.60;;;;;;5119905;27;20480;-47
2022/10/08 07:05:55;;;;;;;9.37;8.13;;;22.00;57.50;;;;;;5114570;27;20813;-47
2022/10/08 07:08:20;;;;;;;9.60;8.70;;;22.10;57.40;;;;;;5120315;27;20548;-47
2022/10/08 07:10:46;;;;;;;9.40;8.50;;;22.10;57.20;;;;;;5113406;27;20567;-47
2022/10/08 07:13:11;;;;;;;10.07;9.10;;;22.20;57.20;;;;;;5121635;27;20268;-46
2022/10/08 07:15:37;;;;;;;8.87;7.97;;;22.30;57.00;;;;;;5126997;27;20190;-50
2022/10/08 07:18:03;;;;;;;11.20;9.40;;;22.40;57.00;;;;;;5128218;27;20631;-50
2022/10/08 07:20:29;;;;;;;9.10;8.30;;;22.50;56.90;;;;;;5126239;27;20178;-50
2022/10/08 07:22:54;;;;;;;11.07;10.07;;;22.60;56.70;;;;;;5122296;27;20717;-49
2022/10/08 07:25:20;;;;;;;9.37;7.40;;;22.80;56.70;;;;;;5124179;27;20273;-50
2022/10/08 07:27:45;;;;;;;10.83;9.77;;;22.80;56.60;;;;;;5115165;27;20194;-50
2022/10/08 07:30:11;;;;;;;11.70;10.50;;;22.90;56.40;;;;;;5126029;27;20190;-52
2022/10/08 07:32:36;;;;;;;9.83;8.83;;;23.10;56.30;;;;;;5128770;27;20198;-50
2022/10/08 07:35:02;;;;;;;15.53;11.57;;;23.10;56.20;;;;;;5123893;27;20247;-48
2022/10/08 07:37:28;;;;;;;12.87;10.67;;;23.20;56.20;;;;;;5122597;27;20190;-48
2022/10/08 07:39:54;;;;;;;16.27;10.77;;;23.20;56.20;;;;;;5125438;27;20431;-50
2022/10/08 07:42:19;;;;;;;13.43;10.27;;;23.10;56.40;;;;;;5128250;27;20194;-49
2022/10/08 07:44:45;;;;;;;11.63;9.30;;;23.00;56.30;;;;;;5125913;27;20317;-51
2022/10/08 07:47:10;;;;;;;13.63;9.57;;;23.00;56.30;;;;;;5126624;27;20673;-51
2022/10/08 07:49:36;;;;;;;11.10;9.10;;;22.80;56.60;;;;;;5115240;27;20311;-50
2022/10/08 07:52:02;;;;;;;9.23;8.23;;;22.70;56.90;;;;;;5121888;27;20193;-50
2022/10/08 07:54:27;;;;;;;10.80;8.10;;;22.60;56.90;;;;;;5126703;27;20198;-50
2022/10/08 07:56:53;;;;;;;8.13;7.13;;;22.50;57.00;;;;;;5122531;27;20322;-51
2022/10/08 07:59:18;;;;;;;10.20;7.57;;;22.40;56.80;;;;;;5124020;27;20544;-48
2022/10/08 08:01:44;;;;;;;7.83;7.00;;;22.20;56.60;;;;;;5127836;27;20205;-48
2022/10/08 08:04:10;;;;;;;10.53;6.70;;;22.20;56.80;;;;;;5111395;27;20899;-48
2022/10/08 08:06:46;;;;;;;10.10;6.43;;;22.20;56.80;;;;;;5119311;27;20198;-51
2022/10/08 08:09:13;;;;;;;9.40;5.77;;;22.20;56.10;;;;;;5120280;27;20451;-49
2022/10/08 08:11:39;;;;;;;8.40;5.40;;;22.10;55.10;;;;;;5130043;27;20447;-51
2022/10/08 08:14:05;;;;;;;7.37;4.40;;;21.90;54.30;;;;;;5119303;27;20451;-49
2022/10/08 08:16:31;;;;;;;6.37;4.80;;;21.90;53.60;;;;;;5125013;27;20439;-50
2022/10/08 08:18:59;;;;;;;10.27;4.53;;;21.90;52.60;;;;;;5118471;27;20197;-51
2022/10/08 08:21:27;;;;;;;9.70;4.27;;;21.80;51.50;;;;;;5122247;27;20190;-51
2022/10/08 08:23:55;;;;;;;13.27;3.77;;;21.50;52.20;;;;;;5128267;27;20494;-47
2022/10/08 08:26:27;;;;;;;4.73;3.27;;;21.50;52.00;;;;;;5125462;27;20796;-49
2022/10/08 08:28:55;;;;;;;9.33;4.17;;;21.50;50.00;;;;;;5119675;27;20916;-48
2022/10/08 08:31:29;;;;;;;4.90;2.73;;;21.50;49.60;;;;;;5124749;27;20502;-51
2022/10/08 08:33:57;;;;;;;6.83;2.87;;;21.60;49.20;;;;;;5122052;27;20478;-46
2022/10/08 08:36:26;;;;;;;6.33;2.80;;;21.60;49.50;;;;;;5126504;27;20446;-46
2022/10/08 08:38:52;;;;;;;4.63;2.70;;;21.70;49.40;;;;;;5120718;27;20845;-47
2022/10/08 08:41:36;;;;;;;9.93;2.80;;;21.90;49.10;;;;;;5120418;27;20435;-51
2022/10/08 08:44:11;;;;;;;6.53;2.70;;;22.00;48.70;;;;;;5117883;27;20229;-47
2022/10/08 08:46:40;;;;;;;7.37;3.57;;;22.10;48.30;;;;;;5126359;27;20847;-47
2022/10/08 08:49:17;;;;;;;5.53;2.77;;;22.10;48.50;;;;;;5123947;27;20898;-47
2022/10/08 08:51:43;;;;;;;6.10;3.10;;;22.10;48.50;;;;;;5126731;27;20432;-47
2022/10/08 08:54:08;;;;;;;7.13;2.57;;;22.20;47.50;;;;;;5124025;27;20462;-47
2022/10/08 08:56:34;;;;;;;6.97;2.50;;;22.00;46.70;;;;;;5120031;27;20724;-49
2022/10/08 08:59:12;;;;;;;5.40;2.53;;;22.00;47.00;;;;;;5118082;27;20186;-47
2022/10/08 09:01:45;;;;;;;6.73;3.40;;;21.90;47.20;;;;;;5128321;27;20245;-50
2022/10/08 09:04:28;;;;;;;11.00;3.60;;;21.90;47.30;;;;;;5114807;27;20548;-50
2022/10/08 09:06:55;;;;;;;5.50;2.60;;;22.10;46.90;;;;;;5121968;27;21715;-46
2022/10/08 09:09:37;;;;;;;13.40;3.23;;;22.10;46.60;;;;;;5130673;27;20478;-48
2022/10/08 09:12:24;;;;;;;6.53;2.87;;;21.90;46.50;;;;;;5119146;27;20798;-46
2022/10/08 09:14:54;;;;;;;9.40;2.80;;;22.20;47.70;;;;;;5117506;27;20996;-47
2022/10/08 09:17:27;;;;;;;8.50;3.13;;;22.40;47.00;;;;;;5113377;27;20446;-48
2022/10/08 09:19:53;;;;;;;9.73;2.80;;;22.60;46.80;;;;;;5118230;27;20435;-49
2022/10/08 09:22:22;;;;;;;5.80;2.67;;;22.80;45.60;;;;;;5119339;28;20464;-50
2022/10/08 09:24:52;;;;;;;7.53;3.07;;;22.70;44.20;;;;;;5119195;28;20236;-50
2022/10/08 09:27:18;;;;;;;6.73;3.00;;;22.80;44.90;;;;;;5123349;28;20444;-51
2022/10/08 09:29:43;;;;;;;9.57;3.50;;;22.80;44.80;;;;;;5118465;28;20935;-46
2022/10/08 09:32:15;;;;;;;6.30;2.90;;;22.90;44.40;;;;;;5114277;28;20246;-47
2022/10/08 09:34:42;;;;;;;8.00;3.07;;;23.20;44.30;;;;;;5117394;28;20278;-48
2022/10/08 09:37:20;;;;;;;6.80;2.77;;;23.40;44.30;;;;;;5118997;28;20788;-47
2022/10/08 09:40:05;;;;;;;9.30;2.63;;;23.40;43.60;;;;;;5118253;28;20493;-46
2022/10/08 09:42:31;;;;;;;5.70;2.73;;;23.40;43.40;;;;;;5110483;28;20535;-48
2022/10/08 09:44:58;;;;;;;7.47;3.10;;;23.30;43.50;;;;;;5114351;27;21223;-47
2022/10/08 09:47:25;;;;;;;6.43;2.43;;;23.40;43.70;;;;;;5124321;27;20192;-51
2022/10/08 09:50:23;;;;;;;7.67;2.70;;;23.70;44.00;;;;;;5129259;27;20455;-50
2022/10/08 09:52:54;;;;;;;10.07;2.70;;;23.80;42.90;;;;;;5127680;27;20446;-46
2022/10/08 09:55:25;;;;;;;9.80;2.97;;;23.80;43.40;;;;;;5124417;27;20902;-48
2022/10/08 09:57:56;;;;;;;7.90;4.10;;;23.90;42.20;;;;;;5130231;27;20435;-47
2022/10/08 10:00:34;;;;;;;7.27;2.43;;;24.10;43.00;;;;;;5125358;27;20477;-47
2022/10/08 10:03:02;;;;;;;6.60;2.33;;;24.10;42.70;;;;;;5116724;27;20440;-49
2022/10/08 10:05:33;;;;;;;10.80;3.40;;;24.20;42.60;;;;;;5114919;27;20491;-47
2022/10/08 10:07:59;;;;;;;7.67;2.90;;;24.00;42.00;;;;;;5124673;27;20526;-47
2022/10/08 10:10:43;;;;;;;7.63;2.60;;;23.80;42.90;;;;;;5123429;27;20524;-51
2022/10/08 10:13:20;;;;;;;5.43;2.40;;;23.90;42.40;;;;;;5125917;27;20705;-48
2022/10/08 10:15:52;;;;;;;4.73;2.50;;;23.90;42.00;;;;;;5124710;27;20533;-46
2022/10/08 10:18:28;;;;;;;8.70;3.30;;;23.80;41.90;;;;;;5122841;27;20809;-50
2022/10/08 10:20:58;;;;;;;6.90;2.57;;;23.80;42.10;;;;;;5128105;27;20435;-49
2022/10/08 10:23:26;;;;;;;7.43;2.90;;;23.70;41.80;;;;;;5128230;27;20945;-48
2022/10/08 10:26:32;;;;;;;7.93;2.80;;;23.70;42.20;;;;;;5131053;27;20476;-49
2022/10/08 10:29:11;;;;;;;10.03;2.97;;;23.30;42.10;;;;;;5123923;27;20431;-51
2022/10/08 10:32:07;;;;;;;5.60;2.60;;;23.20;43.10;;;;;;5124862;27;20497;-51
2022/10/08 10:34:37;;;;;;;5.40;3.17;;;23.20;43.50;;;;;;5113279;27;20819;-47
2022/10/08 10:37:30;;;;;;;6.40;2.80;;;23.40;43.50;;;;;;5127398;27;20427;-48
2022/10/08 10:40:13;;;;;;;8.90;3.40;;;23.50;43.50;;;;;;5124861;27;20470;-47
2022/10/08 10:42:49;;;;;;;5.70;3.00;;;23.60;43.10;;;;;;5124520;27;20844;-47
2022/10/08 10:45:22;;;;;;;7.60;3.10;;;23.40;42.70;;;;;;5119795;27;20540;-52
2022/10/08 10:47:49;;;;;;;9.60;2.63;;;23.10;41.50;;;;;;5121544;27;20448;-51
2022/10/08 10:50:23;;;;;;;4.43;2.50;;;23.00;40.90;;;;;;5118220;27;20435;-50
2022/10/08 10:53:17;;;;;;;4.60;2.40;;;23.10;40.90;;;;;;5121142;27;20440;-47
2022/10/08 10:56:11;;;;;;;4.73;2.30;;;23.20;41.40;;;;;;5115778;27;20447;-48
2022/10/08 10:58:54;;;;;;;4.40;2.00;;;23.40;40.80;;;;;;5120935;27;20444;-49
2022/10/08 11:01:44;;;;;;;7.57;2.93;;;23.60;41.70;;;;;;5122316;27;20431;-49
2022/10/08 11:04:22;;;;;;;4.53;2.50;;;23.80;41.10;;;;;;5126781;27;20486;-48
2022/10/08 11:07:01;;;;;;;4.93;1.90;;;24.00;40.50;;;;;;5121248;27;20440;-47
2022/10/08 11:09:41;;;;;;;8.53;2.77;;;24.20;40.30;;;;;;5119092;27;20520;-51
2022/10/08 11:12:26;;;;;;;6.27;2.33;;;24.00;39.10;;;;;;5119091;27;20513;-47
2022/10/08 11:14:59;;;;;;;11.67;2.27;;;23.70;38.70;;;;;;5121415;27;20443;-51
2022/10/08 11:17:57;;;;;;;4.57;2.20;;;23.90;39.30;;;;;;5118427;27;20933;-48
2022/10/08 11:20:58;;;;;;;3.03;2.20;;;24.00;40.70;;;;;;5116527;27;20489;-48
2022/10/08 11:23:53;;;;;;;5.50;2.10;;;24.10;39.20;;;;;;5119391;27;20478;-47
2022/10/08 11:26:24;;;;;;;4.20;1.97;;;24.20;38.50;;;;;;5121973;27;20440;-47
2022/10/08 11:28:59;;;;;;;4.90;2.20;;;24.20;38.90;;;;;;5120877;27;20458;-48
2022/10/08 11:31:32;;;;;;;7.13;3.17;;;24.30;38.30;;;;;;5122576;27;20442;-47
2022/10/08 11:33:58;;;;;;;7.63;3.60;;;24.40;38.40;;;;;;5120613;27;20431;-51
2022/10/08 11:36:36;;;;;;;8.70;2.67;;;24.50;37.90;;;;;;5127697;27;21099;-48
2022/10/08 11:39:17;;;;;;;4.50;2.53;;;24.60;37.60;;;;;;5114184;27;20436;-48
2022/10/08 11:41:48;;;;;;;4.50;1.93;;;24.80;37.90;;;;;;5128017;27;20478;-48
2022/10/08 11:44:15;;;;;;;7.50;2.30;;;24.90;38.00;;;;;;5126511;27;20483;-48
2022/10/08 11:46:40;;;;;;;5.13;2.47;;;25.00;37.70;;;;;;5128011;27;20473;-52
2022/10/08 11:49:12;;;;;;;4.63;2.03;;;24.80;37.20;;;;;;5114508;27;20923;-48
2022/10/08 11:51:40;;;;;;;6.60;2.30;;;24.70;37.60;;;;;;5112007;28;20653;-47
2022/10/08 11:54:11;;;;;;;4.60;2.47;;;24.70;37.40;;;;;;5127227;27;20484;-47
2022/10/08 11:57:11;;;;;;;4.73;1.93;;;24.50;36.90;;;;;;5122071;27;20958;-48
2022/10/08 11:59:41;;;;;;;5.30;1.73;;;24.50;37.70;;;;;;5093796;27;20475;-49
2022/10/08 12:02:41;;;;;;;7.17;2.33;;;24.40;37.70;;;;;;5111851;28;20421;-48
2022/10/08 12:05:22;;;;;;;5.57;2.43;;;24.60;37.80;;;;;;5106758;27;20495;-47
2022/10/08 12:07:53;;;;;;;8.50;2.90;;;24.70;37.80;;;;;;5110813;27;20443;-48
2022/10/08 12:10:19;;;;;;;5.47;2.03;;;24.80;37.60;;;;;;5115154;27;20514;-49
2022/10/08 12:12:51;;;;;;;4.57;2.30;;;24.60;37.60;;;;;;5117283;27;20495;-49
2022/10/08 12:15:22;;;;;;;6.20;1.97;;;24.60;37.60;;;;;;5114270;27;20193;-48
2022/10/08 12:18:00;;;;;;;6.73;1.90;;;24.60;37.30;;;;;;5120634;27;20439;-50
2022/10/08 12:20:28;;;;;;;4.80;2.20;;;24.50;37.30;;;;;;5121987;27;20436;-49
2022/10/08 12:23:20;;;;;;;5.90;2.37;;;24.40;37.80;;;;;;5114507;27;20911;-48
2022/10/08 12:25:47;;;;;;;4.80;2.30;;;24.40;37.40;;;;;;5121310;27;20827;-48
2022/10/08 12:28:19;;;;;;;3.10;1.50;;;24.40;38.30;;;;;;5114147;27;20500;-47
2022/10/08 12:30:50;;;;;;;7.17;2.03;;;24.60;38.70;;;;;;5122068;27;20459;-50
2022/10/08 12:33:17;;;;;;;5.90;2.43;;;24.70;38.70;;;;;;5125435;27;20448;-49
2022/10/08 12:36:10;;;;;;;3.10;1.70;;;24.70;38.80;;;;;;5120904;27;20479;-48
2022/10/08 12:38:51;;;;;;;1.47;1.30;;;24.50;39.30;;;;;;5125613;27;20447;-49
2022/10/08 12:41:29;;;;;;;6.50;2.47;;;24.50;39.10;;;;;;5126461;27;20448;-52
2022/10/08 12:44:04;;;;;;;3.77;1.80;;;24.30;38.00;;;;;;5110816;28;20475;-48
2022/10/08 12:46:36;;;;;;;7.03;2.10;;;24.50;38.50;;;;;;5116609;27;20435;-49
2022/10/08 12:49:20;;;;;;;7.40;2.10;;;24.60;38.80;;;;;;5129616;27;20439;-51
2022/10/08 12:51:55;;;;;;;4.07;1.97;;;24.80;38.70;;;;;;5127057;27;20440;-49
2022/10/08 12:54:26;;;;;;;3.87;1.83;;;24.90;39.00;;;;;;5130407;27;20937;-49
2022/10/08 12:56:52;;;;;;;4.20;2.17;;;25.10;38.70;;;;;;5127947;27;20455;-48
2022/10/08 12:59:21;;;;;;;7.00;2.10;;;25.20;38.90;;;;;;5121743;27;20448;-47
2022/10/08 13:01:48;;;;;;;5.53;2.20;;;25.20;38.30;;;;;;5127132;27;20846;-48
2022/10/08 13:04:18;;;;;;;4.53;1.73;;;25.30;38.00;;;;;;5125884;27;20561;-47